Time;durP1;ratioP1;P1;durP2;ratioP2;P2;SDS_P1;SDS_P2;PMS_P1;PMS_P2;Temp;Humidity;BMP_temperature;BMP_pressure;BME280_temperature;BME280_humidity;BME280_pressure;Samples;Min_cycle;Max_cycle;Signal;HPM_P1;HPM_P2
2022/09/02 00:00:09;;;;;;;;;;;;;;;-142.75;100.00;76936.44;5014127;28;19952;-68
2022/09/02 00:02:34;;;;;;;;;;;;;;;-142.75;100.00;76928.56;5031821;28;19917;-67
2022/09/02 00:04:59;;;;;;;;;;;;;;;-142.75;100.00;76940.38;5031887;28;19967;-67
2022/09/02 00:07:25;;;;;;;;;;;;;;;-142.75;100.00;76944.31;5031516;28;20401;-67
2022/09/02 00:09:50;;;;;;;;;;;;;;;-142.75;100.00;76944.31;5031697;28;19932;-67
2022/09/02 00:12:15;;;;;;;;;;;;;;;-142.75;100.00;76948.25;5031889;28;19951;-67
2022/09/02 00:14:40;;;;;;;;;;;;;;;-142.75;100.00;76946.28;5031762;28;19972;-67
2022/09/02 00:17:06;;;;;;;;;;;;;;;-142.75;100.00;76944.31;5031470;28;19920;-68
2022/09/02 00:19:31;;;;;;;;;;;;;;;-142.75;100.00;76952.19;5031592;28;19939;-67
2022/09/02 00:21:56;;;;;;;;;;;;;;;-142.75;100.00;76944.31;5031652;28;19924;-67
2022/09/02 00:24:23;;;;;;;;;;;;;;;-142.75;100.00;76956.13;5031655;28;19921;-67
2022/09/02 00:26:49;;;;;;;;;;;;;;;-142.75;100.00;76954.16;5013723;28;20569;-67
2022/09/02 00:29:14;;;;;;;;;;;;;;;-142.75;100.00;76956.13;5032624;28;19913;-67
2022/09/02 00:31:41;;;;;;;;;;;;;;;-142.75;100.00;76960.06;5035231;28;19928;-68
2022/09/02 00:34:07;;;;;;;;;;;;;;;-142.75;100.00;76967.94;5035255;28;19940;-67
2022/09/02 00:36:32;;;;;;;;;;;;;;;-142.75;100.00;76956.13;5034968;28;19994;-66
2022/09/02 00:38:57;;;;;;;;;;;;;;;-142.75;100.00;76969.91;5017267;28;19913;-67
2022/09/02 00:41:24;;;;;;;;;;;;;;;-142.75;100.00;76975.81;5035133;28;20082;-67
2022/09/02 00:43:51;;;;;;;;;;;;;;;-142.75;100.00;76964.00;5035177;28;19913;-67
2022/09/02 00:46:18;;;;;;;;;;;;;;;-142.75;100.00;76967.94;5035056;28;20010;-68
2022/09/02 00:48:47;;;;;;;;;;;;;;;-142.75;100.00;76971.88;5034685;28;20302;-67
2022/09/02 00:51:13;;;;;;;;;;;;;;;-142.75;100.00;76989.59;5034955;28;19948;-67
2022/09/02 00:53:39;;;;;;;;;;;;;;;-142.75;100.00;76991.56;5034887;28;20337;-67
2022/09/02 00:56:07;;;;;;;;;;;;;;;-142.75;100.00;76987.63;5034911;28;19952;-67
2022/09/02 00:58:33;;;;;;;;;;;;;;;-142.75;100.00;76991.56;5034500;28;19913;-67
2022/09/02 01:00:59;;;;;;;;;;;;;;;-142.75;100.00;76995.50;5016983;28;19913;-67
2022/09/02 01:03:26;;;;;;;;;;;;;;;-142.75;100.00;76985.66;5034789;28;19920;-68
2022/09/02 01:05:52;;;;;;;;;;;;;;;-142.75;100.00;76987.63;5016906;28;20464;-69
2022/09/02 01:08:19;;;;;;;;;;;;;;;-142.75;100.00;76997.47;5034302;28;19913;-68
2022/09/02 01:10:46;;;;;;;;;;;;;;;-142.75;100.00;76991.56;5034593;28;19920;-67
2022/09/02 01:13:14;;;;;;;;;;;;;;;-142.75;100.00;76981.72;5034576;28;19924;-67
2022/09/02 01:15:45;;;;;;;;;;;;;;;-142.75;100.00;76977.78;5034573;28;19913;-67
2022/09/02 01:18:13;;;;;;;;;;;;;;;-142.75;100.00;76993.53;5034230;28;19971;-67
2022/09/02 01:20:39;;;;;;;;;;;;;;;-142.75;100.00;76993.53;5034100;28;20441;-67
2022/09/02 01:23:04;;;;;;;;;;;;;;;-142.75;100.00;76995.50;5034328;28;20048;-67
2022/09/02 01:25:31;;;;;;;;;;;;;;;-142.75;100.00;77009.28;5034337;28;20000;-67
2022/09/02 01:28:07;;;;;;;;;;;;;;;-142.75;100.00;77005.34;5016296;28;20002;-68
2022/09/02 01:30:33;;;;;;;;;;;;;;;-142.75;100.00;77009.28;5034206;28;19913;-67
2022/09/02 01:32:58;;;;;;;;;;;;;;;-142.75;100.00;77025.03;5016448;28;19967;-66
2022/09/02 01:35:24;;;;;;;;;;;;;;;-142.75;100.00;77021.09;5034068;28;19917;-67
2022/09/02 01:37:53;;;;;;;;;;;;;;;-142.75;100.00;77019.13;5016034;28;20345;-67
2022/09/02 01:40:18;;;;;;;;;;;;;;;-142.75;100.00;77027.00;5015759;28;20335;-68
2022/09/02 01:42:44;;;;;;;;;;;;;;;-142.75;100.00;77023.06;5033983;28;19972;-67
2022/09/02 01:45:09;;;;;;;;;;;;;;;-142.75;100.00;77032.91;5033977;28;19997;-68
2022/09/02 01:47:36;;;;;;;;;;;;;;;-142.75;100.00;77027.00;5033536;28;19948;-67
2022/09/02 01:50:03;;;;;;;;;;;;;;;-142.75;100.00;77013.22;5033761;28;20349;-67
2022/09/02 01:52:28;;;;;;;;;;;;;;;-142.75;100.00;77019.13;5016124;28;19964;-67
2022/09/02 01:54:56;;;;;;;;;;;;;;;-142.75;100.00;77028.97;5033865;28;19956;-67
2022/09/02 01:57:23;;;;;;;;;;;;;;;-142.75;100.00;77044.72;5015690;28;20391;-68
2022/09/02 01:59:49;;;;;;;;;;;;;;;-142.75;100.00;77044.72;5033614;28;19913;-67
2022/09/02 02:02:14;;;;;;;;;;;;;;;-142.75;100.00;77046.69;5015775;28;19917;-68
2022/09/02 02:04:40;;;;;;;;;;;;;;;-142.75;100.00;77034.88;5015849;28;19913;-67
2022/09/02 02:07:05;;;;;;;;;;;;;;;-142.75;100.00;77038.81;5033314;28;19959;-67
2022/09/02 02:09:30;;;;;;;;;;;;;;;-142.75;100.00;77030.94;5033605;28;20294;-67
2022/09/02 02:11:55;;;;;;;;;;;;;;;-142.75;100.00;77040.78;5033495;28;20349;-67
2022/09/02 02:14:21;;;;;;;;;;;;;;;-142.75;100.00;77038.81;5033425;28;19917;-67
2022/09/02 02:16:47;;;;;;;;;;;;;;;-142.75;100.00;77034.88;5015271;28;19918;-67
2022/09/02 02:19:12;;;;;;;;;;;;;;;-142.75;100.00;77021.09;5045754;22;19925;-67
2022/09/02 02:21:37;;;;;;;;;;;;;;;-142.75;100.00;77030.94;5095153;28;20388;-66
2022/09/02 02:24:03;;;;;;;;;;;;;;;-142.75;100.00;77034.88;5095746;28;19958;-67
2022/09/02 02:26:28;;;;;;;;;;;;;;;-142.75;100.00;77034.88;5096429;28;19923;-67
2022/09/02 02:28:53;;;;;;;;;;;;;;;-142.75;100.00;77046.69;5096498;28;19969;-67
2022/09/02 02:31:19;;;;;;;;;;;;;;;-142.75;100.00;77044.72;5095085;28;19976;-67
2022/09/02 02:33:44;;;;;;;;;;;;;;;-142.75;100.00;77032.91;5096428;28;19912;-67
2022/09/02 02:36:10;;;;;;;;;;;;;;;-142.75;100.00;77030.94;5096333;28;19912;-67
2022/09/02 02:38:36;;;;;;;;;;;;;;;-142.75;100.00;77027.00;5094850;28;20410;-67
2022/09/02 02:41:03;;;;;;;;;;;;;;;-142.75;100.00;77030.94;5096517;28;19912;-67
2022/09/02 02:43:29;;;;;;;;;;;;;;;-142.75;100.00;77032.91;5096218;28;19926;-67
2022/09/02 02:45:54;;;;;;;;;;;;;;;-142.75;100.00;77028.97;5094887;28;19915;-67
2022/09/02 02:48:20;;;;;;;;;;;;;;;-142.75;100.00;77044.72;5096274;28;20274;-67
2022/09/02 02:50:45;;;;;;;;;;;;;;;-142.75;100.00;77038.81;5096363;28;19934;-67
2022/09/02 02:53:11;;;;;;;;;;;;;;;-142.75;100.00;77030.94;5095695;28;19912;-67
2022/09/02 02:55:37;;;;;;;;;;;;;;;-142.75;100.00;77032.91;5096438;28;19958;-67
2022/09/02 02:58:02;;;;;;;;;;;;;;;-142.75;100.00;77038.81;5094858;28;20007;-67
2022/09/02 03:00:29;;;;;;;;;;;;;;;-142.75;100.00;77048.66;5095314;28;20392;-67
2022/09/02 03:02:55;;;;;;;;;;;;;;;-142.75;100.00;77042.75;5095826;28;19920;-67
2022/09/02 03:05:20;;;;;;;;;;;;;;;-142.75;100.00;77034.88;5095686;28;19912;-67
2022/09/02 03:07:46;;;;;;;;;;;;;;;-142.75;100.00;77046.69;5095686;28;20270;-67
2022/09/02 03:10:11;;;;;;;;;;;;;;;-142.75;100.00;77042.75;5096479;28;19936;-67
2022/09/02 03:12:38;;;;;;;;;;;;;;;-142.75;100.00;77060.47;5096381;28;19911;-66
2022/09/02 03:15:04;;;;;;;;;;;;;;;-142.75;100.00;77046.69;5096072;28;19955;-67
2022/09/02 03:17:29;;;;;;;;;;;;;;;-142.75;100.00;77046.69;5096152;28;19969;-67
2022/09/02 03:19:56;;;;;;;;;;;;;;;-142.75;100.00;77046.69;5095007;28;19916;-67
2022/09/02 03:22:21;;;;;;;;;;;;;;;-142.75;100.00;77042.75;5095164;28;19916;-67
2022/09/02 03:24:46;;;;;;;;;;;;;;;-142.75;100.00;77056.53;5093296;28;19918;-67
2022/09/02 03:27:12;;;;;;;;;;;;;;;-142.75;100.00;77050.63;5094607;28;19951;-67
2022/09/02 03:29:37;;;;;;;;;;;;;;;-142.75;100.00;77058.50;5094728;28;19934;-66
2022/09/02 03:32:03;;;;;;;;;;;;;;;-142.75;100.00;77058.50;5095374;28;19928;-67
2022/09/02 03:34:29;;;;;;;;;;;;;;;-142.75;100.00;77058.50;5095065;28;20056;-67
2022/09/02 03:36:55;;;;;;;;;;;;;;;-142.75;100.00;77052.59;5094745;28;19990;-67
2022/09/02 03:39:20;;;;;;;;;;;;;;;-142.75;100.00;77060.47;5094381;28;20345;-67
2022/09/02 03:41:47;;;;;;;;;;;;;;;-142.75;100.00;77062.44;5094740;28;20255;-67
2022/09/02 03:44:12;;;;;;;;;;;;;;;-142.75;100.00;77068.34;5094421;28;19912;-67
2022/09/02 03:46:37;;;;;;;;;;;;;;;-142.75;100.00;77062.44;5094209;28;19966;-67
2022/09/02 03:49:03;;;;;;;;;;;;;;;-142.75;100.00;77062.44;5094457;28;20429;-67
2022/09/02 03:51:28;;;;;;;;;;;;;;;-142.75;100.00;77058.50;5092839;28;19934;-67
2022/09/02 03:53:53;;;;;;;;;;;;;;;-142.75;100.00;77066.38;5094459;28;19946;-66
2022/09/02 03:56:19;;;;;;;;;;;;;;;-142.75;100.00;77070.31;5094174;28;19961;-67
2022/09/02 03:58:45;;;;;;;;;;;;;;;-142.75;100.00;77072.28;5093506;28;19912;-67
2022/09/02 04:01:28;;;;;;;;;;;;;;;-142.75;100.00;77070.31;5092162;28;19919;-67
2022/09/02 04:03:54;;;;;;;;;;;;;;;-142.75;100.00;77080.16;5096536;28;20446;-66
2022/09/02 04:06:20;;;;;;;;;;;;;;;-142.75;100.00;77088.03;5097659;28;19916;-66
2022/09/02 04:08:46;;;;;;;;;;;;;;;-142.75;100.00;77082.13;5097522;28;19978;-67
2022/09/02 04:11:15;;;;;;;;;;;;;;;-142.75;100.00;77078.19;5097781;28;19912;-67
2022/09/02 04:13:40;;;;;;;;;;;;;;;-142.75;100.00;77076.22;5097434;28;19912;-66
2022/09/02 04:16:16;;;;;;;;;;;;;;;-142.75;100.00;77099.84;5097328;28;19927;-67
2022/09/02 04:18:41;;;;;;;;;;;;;;;-142.75;100.00;77090.00;5097896;28;19912;-67
2022/09/02 04:21:07;;;;;;;;;;;;;;;-142.75;100.00;77103.78;5035367;28;1737556;-67
2022/09/02 04:23:32;;;;;;;;;;;;;;;-142.75;100.00;77086.06;5099035;28;20335;-67
2022/09/02 04:25:58;;;;;;;;;;;;;;;-142.75;100.00;77097.88;5098505;28;20078;-67
2022/09/02 04:28:23;;;;;;;;;;;;;;;-142.75;100.00;77097.88;5098390;28;20370;-67
2022/09/02 04:30:49;;;;;;;;;;;;;;;-142.75;100.00;77090.00;5098159;28;19934;-67
2022/09/02 04:33:14;;;;;;;;;;;;;;;-142.75;100.00;77093.94;5098897;28;19919;-67
2022/09/02 04:35:40;;;;;;;;;;;;;;;-142.75;100.00;77086.06;5098375;28;19912;-67
2022/09/02 04:38:05;;;;;;;;;;;;;;;-142.75;100.00;77086.06;5097063;28;19912;-67
2022/09/02 04:40:30;;;;;;;;;;;;;;;-142.75;100.00;77090.00;5097945;28;20377;-66
2022/09/02 04:42:56;;;;;;;;;;;;;;;-142.75;100.00;77078.19;5097910;28;19912;-66
2022/09/02 04:45:21;;;;;;;;;;;;;;;-142.75;100.00;77078.19;5098002;28;19916;-67
2022/09/02 04:47:46;;;;;;;;;;;;;;;-142.75;100.00;77074.25;5097836;28;19948;-67
2022/09/02 04:50:12;;;;;;;;;;;;;;;-142.75;100.00;77082.13;5097320;28;20293;-67
2022/09/02 04:52:37;;;;;;;;;;;;;;;-142.75;100.00;77088.03;5097635;28;19952;-67
2022/09/02 04:55:02;;;;;;;;;;;;;;;-142.75;100.00;77095.91;5097065;28;19918;-67
2022/09/02 04:57:27;;;;;;;;;;;;;;;-142.75;100.00;77097.88;5098031;28;19916;-67
2022/09/02 04:59:53;;;;;;;;;;;;;;;-142.75;100.00;77113.63;5097987;28;19916;-66
2022/09/02 05:02:19;;;;;;;;;;;;;;;-142.75;100.00;77103.78;5098224;28;19912;-67
2022/09/02 05:04:44;;;;;;;;;;;;;;;-142.75;100.00;77105.75;5096412;28;19923;-67
2022/09/02 05:07:10;;;;;;;;;;;;;;;-142.75;100.00;77105.75;5098253;28;19923;-67
2022/09/02 05:09:36;;;;;;;;;;;;;;;-142.75;100.00;77107.72;5097777;28;19912;-67
2022/09/02 05:12:03;;;;;;;;;;;;;;;-142.75;100.00;77105.75;5097533;28;20400;-66
2022/09/02 05:14:28;;;;;;;;;;;;;;;-142.75;100.00;77115.59;5096858;28;19912;-66
2022/09/02 05:16:53;;;;;;;;;;;;;;;-142.75;100.00;77109.69;5097812;28;19916;-67
2022/09/02 05:19:23;;;;;;;;;;;;;;;-142.75;100.00;77097.88;5098299;28;20018;-67
2022/09/02 05:21:49;;;;;;;;;;;;;;;-142.75;100.00;77093.94;5096608;28;20388;-67
2022/09/02 05:24:15;;;;;;;;;;;;;;;-142.75;100.00;77097.88;5097988;28;19924;-67
2022/09/02 05:26:43;;;;;;;;;;;;;;;-142.75;100.00;77086.06;5097635;28;19912;-67
2022/09/02 05:29:10;;;;;;;;;;;;;;;-142.75;100.00;77097.88;5097659;28;19919;-67
2022/09/02 05:31:35;;;;;;;;;;;;;;;-142.75;100.00;77084.09;5097597;28;19912;-66
2022/09/02 05:34:01;;;;;;;;;;;;;;;-142.75;100.00;77097.88;5095827;28;19916;-67
2022/09/02 05:36:26;;;;;;;;;;;;;;;-142.75;100.00;77082.13;5097465;28;19947;-67
2022/09/02 05:38:51;;;;;;;;;;;;;;;-142.75;100.00;77078.19;5097117;28;19951;-67
2022/09/02 05:41:18;;;;;;;;;;;;;;;-142.75;100.00;77091.97;5095996;28;20027;-67
2022/09/02 05:43:44;;;;;;;;;;;;;;;-142.75;100.00;77101.81;5097639;28;19952;-67
2022/09/02 05:46:11;;;;;;;;;;;;;;;-142.75;100.00;77097.88;5096938;28;20305;-67
2022/09/02 05:51:21;;;;;;;;;;;;;;;-142.75;100.00;77078.19;5097323;28;19934;-67
2022/09/02 05:53:46;;;;;;;;;;;;;;;-142.75;100.00;77082.13;5097366;28;20354;-67
2022/09/02 05:56:11;;;;;;;;;;;;;;;-142.75;100.00;77072.28;5097027;28;19947;-67
2022/09/02 05:58:37;;;;;;;;;;;;;;;-142.75;100.00;77074.25;5096683;28;19919;-67
2022/09/02 06:01:06;;;;;;;;;;;;;;;-142.75;100.00;77060.47;5096978;28;19935;-67
2022/09/02 06:03:32;;;;;;;;;;;;;;;-142.75;100.00;77044.72;5097760;28;19916;-67
2022/09/02 06:05:57;;;;;;;;;;;;;;;-142.75;100.00;77060.47;5097038;28;20006;-66
2022/09/02 06:08:23;;;;;;;;;;;;;;;-142.75;100.00;77052.59;5096498;28;19962;-67
2022/09/02 06:10:48;;;;;;;;;;;;;;;-142.75;100.00;77040.78;5096538;28;19966;-66
2022/09/02 06:13:14;;;;;;;;;;;;;;;-142.75;100.00;77011.25;5096183;28;19912;-67
2022/09/02 06:15:43;;;;;;;;;;;;;;;-142.75;100.00;76999.44;5096620;28;20300;-67
2022/09/02 06:18:08;;;;;;;;;;;;;;;-142.75;100.00;76973.84;5096129;28;20305;-66
2022/09/02 06:20:33;;;;;;;;;;;;;;;-142.75;100.00;76952.19;5096496;28;19916;-67
2022/09/02 06:22:58;;;;;;;;;;;;;;;-142.75;100.00;76938.41;5096589;28;19912;-66
2022/09/02 06:25:24;;;;;;;;;;;;;;;-142.75;100.00;76912.81;5096044;28;19916;-66
2022/09/02 06:27:49;;;;;;;;;;;;;;;-142.75;100.00;76893.13;5094773;28;19916;-66
2022/09/02 06:30:14;;;;;;;;;;;;;;;-142.75;100.00;76883.28;5096091;28;19934;-66
2022/09/02 06:32:39;;;;;;;;;;;;;;;-142.75;100.00;76877.38;5096327;28;19912;-67
2022/09/02 06:35:07;;;;;;;;;;;;;;;-142.75;100.00;76849.81;5096098;28;19913;-67
2022/09/02 06:37:32;;;;;;;;;;;;;;;-142.75;100.00;76806.50;5094849;28;20452;-67
2022/09/02 06:39:57;;;;;;;;;;;;;;;-142.75;100.00;76786.84;5096419;28;19912;-66
2022/09/02 06:42:23;;;;;;;;;;;;;;;-142.75;100.00;76773.06;5094533;28;20014;-67
2022/09/02 06:44:48;;;;;;;;;;;;;;;-142.75;100.00;76759.28;5095961;28;20420;-66
2022/09/02 06:47:13;;;;;;;;;;;;;;;-142.75;100.00;76747.47;5095823;28;19912;-66
2022/09/02 06:49:38;;;;;;;;;;;;;;;-142.75;100.00;76700.22;5095572;28;19923;-67
2022/09/02 06:52:04;;;;;;;;;;;;;;;-142.75;100.00;76682.50;5095180;28;20007;-67
2022/09/02 06:54:29;;;;;;;;;;;;;;;-142.75;100.00;76656.91;5094023;28;19942;-67
2022/09/02 06:56:55;;;;;;;;;;;;;;;-142.75;100.00;76637.22;5074758;28;20424;-67
2022/09/02 06:59:20;;;;;;;;;;;;;;;-142.75;100.00;76613.59;5074797;28;19913;-67
2022/09/02 07:01:46;;;;;;;;;;;;;;;-142.75;100.00;76611.63;5074674;28;19916;-67
2022/09/02 07:06:56;;;;;;;;;;;;;;;-142.75;100.00;76607.69;5074929;28;19996;-67
2022/09/02 07:09:22;;;;;;;;;;;;;;;-142.75;100.00;76601.78;5073329;28;20369;-67
2022/09/02 07:11:48;;;;;;;;;;;;;;;-142.75;100.00;76586.03;5076888;28;19913;-66
2022/09/02 07:14:18;;;;;;;;;;;;;;;-142.75;100.00;76574.22;5086974;28;19933;-66
2022/09/02 07:16:48;;;;;;;;;;;;;;;-142.75;100.00;76554.53;5087792;28;19913;-65
2022/09/02 07:19:14;;;;;;;;;;;;;;;-142.75;100.00;76534.84;5079428;28;20050;-66
2022/09/02 07:21:42;;;;;;;;;;;;;;;-142.75;100.00;76515.19;5077553;28;19943;-66
2022/09/02 07:24:08;;;;;;;;;;;;;;;-142.75;100.00;76491.56;5079722;28;19920;-66
2022/09/02 07:26:34;;;;;;;;;;;;;;;-142.75;100.00;76471.88;5076062;28;19919;-65
2022/09/02 07:28:59;;;;;;;;;;;;;;;-142.75;100.00;76471.88;5075565;28;19920;-65
2022/09/02 07:31:26;;;;;;;;;;;;;;;-142.75;100.00;76458.09;5083215;28;19916;-66
2022/09/02 07:33:51;;;;;;;;;;;;;;;-142.75;100.00;76460.06;5079023;28;19920;-66
2022/09/02 07:36:20;;;;;;;;;;;;;;;-142.75;100.00;76450.22;5079623;28;19923;-66
2022/09/02 07:38:45;;;;;;;;;;;;;;;-142.75;100.00;76444.31;5079621;28;19923;-66
2022/09/02 07:41:11;;;;;;;;;;;;;;;-142.75;100.00;76446.28;5082156;28;20386;-66
2022/09/02 07:43:37;;;;;;;;;;;;;;;-142.75;100.00;76426.59;5085118;28;19916;-66
2022/09/02 07:46:03;;;;;;;;;;;;;;;-142.75;100.00;76420.69;5084781;28;19912;-66
2022/09/02 07:48:29;;;;;;;;;;;;;;;-142.75;100.00;76420.69;5084190;28;19948;-66
2022/09/02 07:50:55;;;;;;;;;;;;;;;-142.75;100.00;76408.88;5082871;28;19913;-65
2022/09/02 07:53:21;;;;;;;;;;;;;;;-142.75;100.00;76422.66;5086009;28;19919;-66
2022/09/02 07:55:46;;;;;;;;;;;;;;;-142.75;100.00;76420.69;5089692;28;20282;-66
2022/09/02 07:58:12;;;;;;;;;;;;;;;-142.75;100.00;76418.72;5083760;28;19983;-66
2022/09/02 08:00:37;;;;;;;;;;;;;;;-142.75;100.00;76402.97;5081494;28;19921;-67
2022/09/02 08:03:03;;;;;;;;;;;;;;;-142.75;100.00;76363.59;5088456;28;19916;-65
2022/09/02 08:05:32;;;;;;;;;;;;;;;-142.75;100.00;76332.13;5089242;28;19926;-67
2022/09/02 08:07:59;;;;;;;;;;;;;;;-142.75;100.00;76302.59;5087743;28;19913;-67
2022/09/02 08:10:27;;;;;;;;;;;;;;;-142.75;100.00;76275.03;5082737;28;19962;-67
2022/09/02 08:12:53;;;;;;;;;;;;;;;-142.75;100.00;76278.97;5083254;28;19913;-67
2022/09/02 08:15:21;;;;;;;;;;;;;;;-142.75;100.00;76282.91;5088907;28;19935;-67
2022/09/02 08:17:47;;;;;;;;;;;;;;;-142.75;100.00;76271.09;5088036;28;19912;-67
2022/09/02 08:20:12;;;;;;;;;;;;;;;-142.75;100.00;76300.63;5099995;22;19924;-67
2022/09/02 08:22:37;;;;;;;;;;;;;;;-142.75;100.00;76302.59;5076322;28;20059;-67
2022/09/02 08:25:03;;;;;;;;;;;;;;;-142.75;100.00;76294.72;5077887;28;19935;-67
2022/09/02 08:27:29;;;;;;;;;;;;;;;-142.75;100.00;76294.72;5077282;28;19958;-67
2022/09/02 08:29:54;;;;;;;;;;;;;;;-142.75;100.00;76310.47;5068647;28;20366;-68
2022/09/02 08:32:19;;;;;;;;;;;;;;;-142.75;100.00;76322.28;5054960;28;20417;-68
2022/09/02 08:34:44;;;;;;;;;;;;;;;-142.75;100.00;76345.91;5057767;28;20048;-68
2022/09/02 08:37:10;;;;;;;;;;;;;;;-142.75;100.00;76353.78;5057128;28;19920;-69
2022/09/02 08:39:35;;;;;;;;;;;;;;;-142.75;100.00;76349.81;5057844;28;19917;-70
2022/09/02 08:42:07;;;;;;;;;;;;;;;-142.75;100.00;76355.72;5043535;28;20519;-69
2022/09/02 08:44:35;;;;;;;;;;;;;;;-142.75;100.00;76351.81;5041125;28;20011;-69
2022/09/02 08:47:01;;;;;;;;;;;;;;;-142.75;100.00;76351.81;5060429;28;19971;-69
2022/09/02 08:49:39;;;;;;;;;;;;;;;-142.75;100.00;76340.00;5058400;28;19916;-69
2022/09/02 08:52:04;;;;;;;;;;;;;;;-142.75;100.00;76334.09;5057865;28;19920;-69
2022/09/02 08:54:35;;;;;;;;;;;;;;;-142.75;100.00;76330.16;5039216;28;19920;-69
2022/09/02 08:57:00;;;;;;;;;;;;;;;-142.75;100.00;76326.22;5034057;28;19917;-70
2022/09/02 08:59:26;;;;;;;;;;;;;;;-142.75;100.00;76300.63;5035540;28;19913;-69
2022/09/02 09:01:57;;;;;;;;;;;;;;;-142.75;100.00;76286.84;5036688;28;19924;-69
2022/09/02 09:04:26;;;;;;;;;;;;;;;-142.75;100.00;76261.25;5056253;28;19924;-70
2022/09/02 09:06:55;;;;;;;;;;;;;;;-142.75;100.00;76225.81;5056586;28;20413;-67
2022/09/02 09:09:49;;;;;;;;;;;;;;;-142.75;100.00;76188.44;5038814;28;19943;-71
2022/09/02 09:12:20;;;;;;;;;;;;;;;-142.75;100.00;76101.81;5044553;28;19913;-69
2022/09/02 09:14:53;;;;;;;;;;;;;;;-142.75;100.00;76064.44;5057018;28;19920;-69
2022/09/02 09:17:25;;;;;;;;;;;;;;;-142.75;100.00;76078.19;5057761;28;19912;-69
2022/09/02 09:19:54;;;;;;;;;;;;;;;-142.75;100.00;76086.06;5059168;28;19940;-69
2022/09/02 09:22:23;;;;;;;;;;;;;;;-142.75;100.00;76046.72;5058783;28;20008;-70
2022/09/02 09:24:49;;;;;;;;;;;;;;;-142.75;99.71;76003.41;5058767;28;20325;-70
2022/09/02 09:27:16;;;;;;;;;;;;;;;-142.75;95.68;75967.97;5059457;28;19912;-70
2022/09/02 09:29:42;;;;;;;;;;;;;;;-142.75;91.25;75956.19;5059693;28;19919;-70
2022/09/02 09:32:25;;;;;;;;;;;;;;;-142.75;92.35;75922.72;5059878;28;20386;-70
2022/09/02 09:34:50;;;;;;;;;;;;;;;-142.75;93.25;75869.56;5058065;28;19913;-70
2022/09/02 09:37:36;;;;;;;;;;;;;;;-142.75;88.19;75834.16;5058503;28;19935;-70
2022/09/02 09:40:20;;;;;;;;;;;;;;;-142.75;86.12;75784.94;5057355;28;19912;-70
2022/09/02 09:42:46;;;;;;;;;;;;;;;-142.75;83.75;75753.47;5057493;28;19916;-70
2022/09/02 09:45:18;;;;;;;;;;;;;;;-142.75;79.80;75727.88;5058157;28;19920;-70
2022/09/02 09:47:44;;;;;;;;;;;;;;;-142.75;80.21;75725.91;5039068;28;20007;-70
2022/09/02 09:50:09;;;;;;;;;;;;;;;-142.75;79.39;75704.25;5057246;28;20342;-70
2022/09/02 09:52:35;;;;;;;;;;;;;;;-142.75;78.93;75704.25;5040286;28;19920;-70
2022/09/02 09:55:12;;;;;;;;;;;;;;;-142.75;81.06;75664.91;5039266;28;19920;-70
2022/09/02 09:57:39;;;;;;;;;;;;;;;-142.75;78.68;75629.47;5056884;28;20054;-70
2022/09/02 10:00:17;;;;;;;;;;;;;;;-142.75;77.03;75603.88;5056739;28;20386;-70
2022/09/02 10:02:47;;;;;;;;;;;;;;;-142.75;74.52;75615.69;5056501;28;19924;-71
2022/09/02 10:05:17;;;;;;;;;;;;;;;-142.75;74.54;75619.63;5057957;28;19920;-71
2022/09/02 10:07:51;;;;;;;;;;;;;;;-142.75;75.20;75599.94;5056705;28;19912;-70
2022/09/02 10:10:18;;;;;;;;;;;;;;;-142.75;74.93;75637.34;5040201;28;19939;-70
2022/09/02 10:12:44;;;;;;;;;;;;;;;-142.75;75.21;75617.66;5039439;28;19939;-70
2022/09/02 10:15:10;;;;;;;;;;;;;;;-142.75;74.39;75639.31;5039285;28;19923;-70
2022/09/02 10:17:41;;;;;;;;;;;;;;;-142.75;74.06;75625.53;5056917;28;20383;-70
2022/09/02 10:20:17;;;;;;;;;;;;;;;-142.75;76.00;75629.47;5056744;28;19917;-71
2022/09/02 10:22:46;;;;;;;;;;;;;;;-142.75;74.23;75631.44;5038801;28;20433;-70
2022/09/02 10:25:19;;;;;;;;;;;;;;;-142.75;73.35;75621.59;5055428;28;19920;-70
2022/09/02 10:28:06;;;;;;;;;;;;;;;-142.75;73.65;75588.16;5054715;28;20409;-69
2022/09/02 10:30:43;;;;;;;;;;;;;;;-142.75;72.51;75574.38;5038045;28;19974;-70
2022/09/02 10:33:17;;;;;;;;;;;;;;;-142.75;71.69;75542.88;5055816;28;19920;-70
2022/09/02 10:35:47;;;;;;;;;;;;;;;-142.75;70.58;75562.56;5056334;28;19912;-69
2022/09/02 10:38:31;;;;;;;;;;;;;;;-142.75;70.93;75515.31;5037300;28;19920;-69
2022/09/02 10:41:03;;;;;;;;;;;;;;;-142.75;69.60;75472.03;5055051;28;19912;-70
2022/09/02 10:43:28;;;;;;;;;;;;;;;-142.75;69.93;75448.41;5056661;28;20480;-70
2022/09/02 10:45:55;;;;;;;;;;;;;;;-142.75;69.55;75481.88;5040953;28;19924;-71
2022/09/02 10:48:29;;;;;;;;;;;;;;;-142.75;70.59;75472.03;5038479;28;19917;-71
2022/09/02 10:50:57;;;;;;;;;;;;;;;-142.75;69.60;75448.41;5056142;28;20007;-70
2022/09/02 10:53:34;;;;;;;;;;;;;;;-142.75;71.96;75452.34;5054809;28;19976;-71
2022/09/02 10:56:07;;;;;;;;;;;;;;;-142.75;68.97;75391.34;5054188;28;19917;-68
2022/09/02 10:58:44;;;;;;;;;;;;;;;-142.75;66.63;75357.91;5054708;28;19912;-70
2022/09/02 11:01:14;;;;;;;;;;;;;;;-142.75;67.26;75320.50;5037017;28;19912;-70
2022/09/02 11:03:42;;;;;;;;;;;;;;;-142.75;67.62;75322.47;5054915;28;19916;-71
2022/09/02 11:06:13;;;;;;;;;;;;;;;-142.75;68.15;75330.34;5036807;28;19919;-70
2022/09/02 11:08:42;;;;;;;;;;;;;;;-142.75;67.09;75334.28;5037057;28;19966;-70
2022/09/02 11:11:20;;;;;;;;;;;;;;;-142.75;66.14;75312.63;5054117;28;20329;-72
2022/09/02 11:13:51;;;;;;;;;;;;;;;-142.75;66.18;75318.53;5053924;28;19920;-70
2022/09/02 11:16:24;;;;;;;;;;;;;;;-142.75;66.08;75247.69;5053338;28;19913;-70
2022/09/02 11:18:49;;;;;;;;;;;;;;;-142.75;65.77;75239.81;5053248;28;19923;-72
2022/09/02 11:21:21;;;;;;;;;;;;;;;-142.75;65.96;75294.94;5051999;28;19917;-72
2022/09/02 11:23:52;;;;;;;;;;;;;;;-142.75;67.22;75316.56;5052197;28;19939;-71
2022/09/02 11:26:17;;;;;;;;;;;;;;;-142.75;67.04;75292.97;5034478;28;19966;-70
2022/09/02 11:28:42;;;;;;;;;;;;;;;-142.75;67.21;75271.31;5034017;28;20023;-69
2022/09/02 11:31:18;;;;;;;;;;;;;;;-142.75;64.29;75267.38;5051979;28;19912;-69
2022/09/02 11:33:56;;;;;;;;;;;;;;;-142.75;65.30;75287.06;5052707;28;20271;-70
2022/09/02 11:36:22;;;;;;;;;;;;;;;-142.75;67.01;75253.59;5052568;28;19916;-70
2022/09/02 11:38:51;;;;;;;;;;;;;;;-142.75;66.42;75253.59;5051870;28;20367;-70
2022/09/02 11:41:24;;;;;;;;;;;;;;;-142.75;65.13;75220.16;5052065;28;19920;-70
2022/09/02 11:43:53;;;;;;;;;;;;;;;-142.75;65.34;75184.72;5052419;28;19920;-71
2022/09/02 11:46:36;;;;;;;;;;;;;;;-142.75;64.03;75174.88;5052406;28;19919;-71
2022/09/02 11:49:10;;;;;;;;;;;;;;;-142.75;63.41;75170.94;5052938;28;19920;-71
2022/09/02 11:51:54;;;;;;;;;;;;;;;-142.75;65.61;75180.78;5053159;28;19913;-70
2022/09/02 11:54:20;;;;;;;;;;;;;;;-142.75;63.33;75139.47;5053798;28;20680;-71
2022/09/02 11:56:47;;;;;;;;;;;;;;;-142.75;63.76;75172.91;5053333;28;19913;-70
2022/09/02 11:59:20;;;;;;;;;;;;;;;-142.75;62.28;75121.75;5052708;28;19913;-71
2022/09/02 12:01:48;;;;;;;;;;;;;;;-142.75;61.53;75125.69;5052938;28;19920;-71
2022/09/02 12:04:13;;;;;;;;;;;;;;;-142.75;60.37;75165.03;5052981;28;19912;-71
2022/09/02 12:07:14;;;;;;;;;;;;;;;-142.75;61.93;75172.91;5052373;28;19924;-70
2022/09/02 12:09:43;;;;;;;;;;;;;;;-142.75;61.00;75145.38;5052742;28;19913;-70
2022/09/02 12:12:29;;;;;;;;;;;;;;;-142.75;59.85;75125.69;5052628;28;20344;-70
2022/09/02 12:14:55;;;;;;;;;;;;;;;-142.75;60.84;75078.47;5051816;28;19913;-70
2022/09/02 12:17:36;;;;;;;;;;;;;;;-142.75;54.40;75115.84;5052253;28;20428;-70
2022/09/02 12:20:01;;;;;;;;;;;;;;;-142.75;55.67;75192.59;5051948;28;19917;-70
2022/09/02 12:22:31;;;;;;;;;;;;;;;-142.75;55.29;75192.59;5052034;28;19924;-70
2022/09/02 12:24:57;;;;;;;;;;;;;;;-142.75;58.19;75200.47;5054140;28;20020;-69
2022/09/02 12:27:27;;;;;;;;;;;;;;;-142.75;52.89;75198.50;5055830;28;19952;-71